sensor_id;sensor_type;location;lat;lon;timestamp;pressure;altitude;pressure_sealevel;temperature;humidity
71948;BME280;63257;55.082;38.772;2023-03-21T00:00:54;99620.34;;;3.18;64.38
71948;BME280;63257;55.082;38.772;2023-03-21T00:03:21;99627.19;;;3.22;64.40
71948;BME280;63257;55.082;38.772;2023-03-21T00:05:46;99607.97;;;3.25;63.64
71948;BME280;63257;55.082;38.772;2023-03-21T00:08:17;99621.06;;;3.23;63.59
71948;BME280;63257;55.082;38.772;2023-03-21T00:10:43;99621.22;;;3.19;63.17
71948;BME280;63257;55.082;38.772;2023-03-21T00:13:14;99593.72;;;3.07;63.54
71948;BME280;63257;55.082;38.772;2023-03-21T00:15:41;99597.84;;;3.14;63.85
71948;BME280;63257;55.082;38.772;2023-03-21T00:18:20;99578.25;;;3.01;63.49
71948;BME280;63257;55.082;38.772;2023-03-21T00:20:58;99606.25;;;3.24;63.54
71948;BME280;63257;55.082;38.772;2023-03-21T00:23:26;99607.88;;;3.28;62.88
71948;BME280;63257;55.082;38.772;2023-03-21T00:25:53;99603.72;;;3.22;62.62
71948;BME280;63257;55.082;38.772;2023-03-21T00:28:19;99582.13;;;3.17;63.02
71948;BME280;63257;55.082;38.772;2023-03-21T00:30:48;99606.56;;;3.15;62.93
71948;BME280;63257;55.082;38.772;2023-03-21T00:33:14;99578.22;;;3.02;62.80
71948;BME280;63257;55.082;38.772;2023-03-21T00:35:40;99595.53;;;3.03;63.48
71948;BME280;63257;55.082;38.772;2023-03-21T00:38:13;99585.34;;;2.96;63.24
71948;BME280;63257;55.082;38.772;2023-03-21T00:40:39;99592.13;;;3.01;63.27
71948;BME280;63257;55.082;38.772;2023-03-21T00:43:09;99579.25;;;2.97;63.31
71948;BME280;63257;55.082;38.772;2023-03-21T00:45:37;99578.31;;;2.98;63.46
71948;BME280;63257;55.082;38.772;2023-03-21T00:48:04;99583.44;;;3.02;63.73
71948;BME280;63257;55.082;38.772;2023-03-21T00:50:30;99577.38;;;3.00;63.49
71948;BME280;63257;55.082;38.772;2023-03-21T00:52:59;99582.50;;;3.05;63.33
71948;BME280;63257;55.082;38.772;2023-03-21T00:55:25;99579.91;;;3.03;63.36
71948;BME280;63257;55.082;38.772;2023-03-21T00:57:53;99575.22;;;3.16;63.68
71948;BME280;63257;55.082;38.772;2023-03-21T01:00:19;99575.31;;;3.12;63.42
71948;BME280;63257;55.082;38.772;2023-03-21T01:02:45;99576.16;;;3.14;63.60
71948;BME280;63257;55.082;38.772;2023-03-21T01:05:28;99575.94;;;3.21;63.49
71948;BME280;63257;55.082;38.772;2023-03-21T01:08:16;99581.06;;;3.25;63.33
71948;BME280;63257;55.082;38.772;2023-03-21T01:10:46;99572.91;;;3.35;63.38
71948;BME280;63257;55.082;38.772;2023-03-21T01:13:13;99564.84;;;3.43;62.65
71948;BME280;63257;55.082;38.772;2023-03-21T01:15:46;99571.31;;;3.60;62.49
71948;BME280;63257;55.082;38.772;2023-03-21T01:18:13;99559.88;;;3.64;62.26
71948;BME280;63257;55.082;38.772;2023-03-21T01:20:41;99565.88;;;3.67;62.30
71948;BME280;63257;55.082;38.772;2023-03-21T01:23:09;99561.88;;;3.55;62.94
71948;BME280;63257;55.082;38.772;2023-03-21T01:25:35;99567.13;;;3.54;62.53
71948;BME280;63257;55.082;38.772;2023-03-21T01:28:02;99555.03;;;3.51;62.86
71948;BME280;63257;55.082;38.772;2023-03-21T01:30:28;99567.00;;;3.59;63.07
71948;BME280;63257;55.082;38.772;2023-03-21T01:32:54;99565.56;;;3.48;63.28
71948;BME280;63257;55.082;38.772;2023-03-21T01:35:20;99563.47;;;3.60;63.03
71948;BME280;63257;55.082;38.772;2023-03-21T01:37:48;99566.81;;;3.65;63.14
71948;BME280;63257;55.082;38.772;2023-03-21T01:40:21;99544.91;;;3.42;63.04
71948;BME280;63257;55.082;38.772;2023-03-21T01:42:50;99561.41;;;3.43;63.41
71948;BME280;63257;55.082;38.772;2023-03-21T01:48:27;99552.16;;;3.31;63.78
71948;BME280;63257;55.082;38.772;2023-03-21T01:50:57;99553.41;;;3.19;64.09
71948;BME280;63257;55.082;38.772;2023-03-21T01:53:46;99552.72;;;3.12;64.47
71948;BME280;63257;55.082;38.772;2023-03-21T01:56:21;99530.44;;;3.00;64.66
71948;BME280;63257;55.082;38.772;2023-03-21T01:59:01;99546.63;;;3.12;65.05
71948;BME280;63257;55.082;38.772;2023-03-21T02:01:48;99543.81;;;3.19;64.59
71948;BME280;63257;55.082;38.772;2023-03-21T02:04:16;99539.59;;;3.15;64.45
71948;BME280;63257;55.082;38.772;2023-03-21T02:07:18;99544.44;;;3.28;64.05
71948;BME280;63257;55.082;38.772;2023-03-21T02:09:57;99535.72;;;3.29;64.29
71948;BME280;63257;55.082;38.772;2023-03-21T02:12:24;99536.00;;;3.19;64.26
71948;BME280;63257;55.082;38.772;2023-03-21T02:14:52;99512.72;;;3.13;64.07
71948;BME280;63257;55.082;38.772;2023-03-21T02:18:00;99532.59;;;3.17;64.59
71948;BME280;63257;55.082;38.772;2023-03-21T02:27:21;99517.63;;;3.22;64.40
71948;BME280;63257;55.082;38.772;2023-03-21T02:36:16;99506.94;;;3.32;64.17
71948;BME280;63257;55.082;38.772;2023-03-21T02:42:24;99493.88;;;3.32;63.50
71948;BME280;63257;55.082;38.772;2023-03-21T02:45:08;99505.75;;;3.42;63.76
71948;BME280;63257;55.082;38.772;2023-03-21T02:47:52;99488.56;;;3.35;63.09
71948;BME280;63257;55.082;38.772;2023-03-21T02:53:06;99448.34;;;3.14;64.19
71948;BME280;63257;55.082;38.772;2023-03-21T02:55:35;99502.09;;;3.48;64.18
71948;BME280;63257;55.082;38.772;2023-03-21T02:58:06;99486.56;;;3.43;63.98
71948;BME280;63257;55.082;38.772;2023-03-21T03:00:33;99498.16;;;3.34;64.63
71948;BME280;63257;55.082;38.772;2023-03-21T03:07:19;99503.50;;;3.01;65.57
71948;BME280;63257;55.082;38.772;2023-03-21T03:13:06;99498.44;;;2.95;66.80
71948;BME280;63257;55.082;38.772;2023-03-21T03:18:49;99492.38;;;2.95;66.26
71948;BME280;63257;55.082;38.772;2023-03-21T03:21:39;99491.25;;;3.03;66.40
71948;BME280;63257;55.082;38.772;2023-03-21T03:24:18;99487.00;;;3.01;66.38
71948;BME280;63257;55.082;38.772;2023-03-21T03:27:05;99486.59;;;3.15;65.93
71948;BME280;63257;55.082;38.772;2023-03-21T03:29:37;99476.91;;;3.18;65.54
71948;BME280;63257;55.082;38.772;2023-03-21T03:32:15;99474.44;;;3.14;65.48
71948;BME280;63257;55.082;38.772;2023-03-21T03:34:46;99464.06;;;3.12;65.92
71948;BME280;63257;55.082;38.772;2023-03-21T03:37:20;99478.22;;;3.32;64.98
71948;BME280;63257;55.082;38.772;2023-03-21T03:39:59;99426.00;;;3.07;65.14
71948;BME280;63257;55.082;38.772;2023-03-21T03:42:38;99477.34;;;3.33;65.98
71948;BME280;63257;55.082;38.772;2023-03-21T03:45:16;99477.56;;;3.25;65.87
71948;BME280;63257;55.082;38.772;2023-03-21T03:54:10;99471.91;;;3.39;65.39
71948;BME280;63257;55.082;38.772;2023-03-21T03:56:38;99414.00;;;3.01;65.74
71948;BME280;63257;55.082;38.772;2023-03-21T03:59:05;99468.50;;;3.37;65.61
71948;BME280;63257;55.082;38.772;2023-03-21T04:01:54;99469.63;;;3.28;66.35
71948;BME280;63257;55.082;38.772;2023-03-21T04:04:21;99423.97;;;2.86;66.31
71948;BME280;63257;55.082;38.772;2023-03-21T04:06:49;99448.78;;;3.00;66.42
71948;BME280;63257;55.082;38.772;2023-03-21T04:09:21;99437.91;;;2.85;66.84
71948;BME280;63257;55.082;38.772;2023-03-21T04:11:47;99431.63;;;2.93;67.10
71948;BME280;63257;55.082;38.772;2023-03-21T04:14:13;99458.16;;;3.05;66.98
71948;BME280;63257;55.082;38.772;2023-03-21T04:16:41;99438.47;;;2.95;67.52
71948;BME280;63257;55.082;38.772;2023-03-21T04:19:07;99427.34;;;2.90;66.97
71948;BME280;63257;55.082;38.772;2023-03-21T04:21:34;99438.34;;;3.00;66.94
71948;BME280;63257;55.082;38.772;2023-03-21T04:24:04;99462.78;;;3.26;66.84
71948;BME280;63257;55.082;38.772;2023-03-21T04:26:32;99439.50;;;3.19;66.56
71948;BME280;63257;55.082;38.772;2023-03-21T04:29:22;99405.19;;;3.05;66.55
71948;BME280;63257;55.082;38.772;2023-03-21T04:32:10;99428.25;;;3.17;66.48
71948;BME280;63257;55.082;38.772;2023-03-21T04:34:53;99429.09;;;3.18;66.47
71948;BME280;63257;55.082;38.772;2023-03-21T04:37:21;99450.31;;;3.35;66.24
71948;BME280;63257;55.082;38.772;2023-03-21T04:43:06;99387.31;;;2.93;65.94
71948;BME280;63257;55.082;38.772;2023-03-21T04:45:36;99434.31;;;3.18;66.69
71948;BME280;63257;55.082;38.772;2023-03-21T04:48:04;99404.47;;;3.00;66.77
71948;BME280;63257;55.082;38.772;2023-03-21T04:50:33;99433.22;;;3.25;66.74
71948;BME280;63257;55.082;38.772;2023-03-21T04:57:13;99449.81;;;3.51;65.90
71948;BME280;63257;55.082;38.772;2023-03-21T04:59:41;99443.81;;;3.47;65.64
71948;BME280;63257;55.082;38.772;2023-03-21T05:02:07;99422.28;;;3.42;65.95
71948;BME280;63257;55.082;38.772;2023-03-21T05:04:40;99417.78;;;3.46;65.62
71948;BME280;63257;55.082;38.772;2023-03-21T05:07:07;99437.13;;;3.67;65.99
71948;BME280;63257;55.082;38.772;2023-03-21T05:09:33;99421.66;;;3.61;64.96
71948;BME280;63257;55.082;38.772;2023-03-21T05:12:02;99407.06;;;3.55;64.95
71948;BME280;63257;55.082;38.772;2023-03-21T05:14:33;99424.69;;;3.75;64.59
71948;BME280;63257;55.082;38.772;2023-03-21T05:17:06;99453.66;;;3.93;63.94
71948;BME280;63257;55.082;38.772;2023-03-21T05:19:35;99426.16;;;3.82;64.62
71948;BME280;63257;55.082;38.772;2023-03-21T05:22:10;99428.50;;;3.90;64.05
71948;BME280;63257;55.082;38.772;2023-03-21T05:24:38;99396.56;;;3.82;63.99
71948;BME280;63257;55.082;38.772;2023-03-21T05:27:09;99393.00;;;3.84;64.22
71948;BME280;63257;55.082;38.772;2023-03-21T05:29:48;99383.78;;;3.99;63.69
71948;BME280;63257;55.082;38.772;2023-03-21T05:32:36;99440.25;;;4.52;62.72
71948;BME280;63257;55.082;38.772;2023-03-21T05:35:04;99434.72;;;4.60;62.90
71948;BME280;63257;55.082;38.772;2023-03-21T05:37:34;99401.34;;;4.45;61.93
71948;BME280;63257;55.082;38.772;2023-03-21T05:40:01;99399.03;;;4.37;62.38
71948;BME280;63257;55.082;38.772;2023-03-21T05:42:30;99394.44;;;4.42;62.59
71948;BME280;63257;55.082;38.772;2023-03-21T05:44:57;99408.44;;;4.65;62.22
71948;BME280;63257;55.082;38.772;2023-03-21T05:47:30;99391.03;;;4.64;61.58
71948;BME280;63257;55.082;38.772;2023-03-21T05:53:41;99434.94;;;5.01;60.99
71948;BME280;63257;55.082;38.772;2023-03-21T05:56:07;99430.50;;;5.03;60.93
71948;BME280;63257;55.082;38.772;2023-03-21T05:58:45;99428.81;;;5.02;61.33
71948;BME280;63257;55.082;38.772;2023-03-21T06:01:11;99420.34;;;4.96;61.29
71948;BME280;63257;55.082;38.772;2023-03-21T06:03:42;99420.34;;;4.96;61.00
71948;BME280;63257;55.082;38.772;2023-03-21T06:06:16;99429.69;;;5.03;61.55
71948;BME280;63257;55.082;38.772;2023-03-21T06:08:51;99418.75;;;4.91;61.28
71948;BME280;63257;55.082;38.772;2023-03-21T06:11:25;99435.47;;;4.87;61.84
71948;BME280;63257;55.082;38.772;2023-03-21T06:14:08;99432.50;;;4.97;61.04
71948;BME280;63257;55.082;38.772;2023-03-21T06:16:34;99418.03;;;4.88;61.10
71948;BME280;63257;55.082;38.772;2023-03-21T06:19:00;99428.94;;;4.99;61.51
71948;BME280;63257;55.082;38.772;2023-03-21T06:21:40;99415.78;;;5.01;61.13
71948;BME280;63257;55.082;38.772;2023-03-21T06:24:08;99417.84;;;5.15;60.77
71948;BME280;63257;55.082;38.772;2023-03-21T06:26:34;99374.28;;;4.91;61.15
71948;BME280;63257;55.082;38.772;2023-03-21T06:29:07;99399.75;;;5.10;60.58
71948;BME280;63257;55.082;38.772;2023-03-21T06:31:33;99428.16;;;5.19;60.66
71948;BME280;63257;55.082;38.772;2023-03-21T06:34:02;99429.69;;;5.03;60.71
71948;BME280;63257;55.082;38.772;2023-03-21T06:36:28;99424.78;;;4.93;61.54
71948;BME280;63257;55.082;38.772;2023-03-21T06:38:54;99417.72;;;4.96;61.22
71948;BME280;63257;55.082;38.772;2023-03-21T06:41:21;99429.34;;;5.10;60.61
71948;BME280;63257;55.082;38.772;2023-03-21T06:43:58;99429.34;;;5.10;60.66
71948;BME280;63257;55.082;38.772;2023-03-21T06:46:24;99435.38;;;4.90;60.88
71948;BME280;63257;55.082;38.772;2023-03-21T06:48:50;99407.16;;;4.75;61.78
71948;BME280;63257;55.082;38.772;2023-03-21T06:51:17;99432.53;;;4.73;62.17
71948;BME280;63257;55.082;38.772;2023-03-21T06:54:18;99422.84;;;4.75;62.10
71948;BME280;63257;55.082;38.772;2023-03-21T06:57:04;99404.28;;;4.83;61.77
71948;BME280;63257;55.082;38.772;2023-03-21T06:59:33;99415.16;;;4.94;62.19
71948;BME280;63257;55.082;38.772;2023-03-21T07:02:04;99411.38;;;5.03;61.69
71948;BME280;63257;55.082;38.772;2023-03-21T07:04:34;99409.03;;;5.17;61.03
71948;BME280;63257;55.082;38.772;2023-03-21T07:07:01;99402.16;;;5.37;60.75
71948;BME280;63257;55.082;38.772;2023-03-21T07:09:27;99404.94;;;5.54;60.38
71948;BME280;63257;55.082;38.772;2023-03-21T07:11:56;99395.38;;;5.53;59.92
71948;BME280;63257;55.082;38.772;2023-03-21T07:14:29;99405.09;;;5.72;59.30
71948;BME280;63257;55.082;38.772;2023-03-21T07:16:56;99405.34;;;5.86;59.30
71948;BME280;63257;55.082;38.772;2023-03-21T07:19:22;99403.03;;;6.01;58.58
71948;BME280;63257;55.082;38.772;2023-03-21T07:21:48;99402.75;;;6.07;58.49
71948;BME280;63257;55.082;38.772;2023-03-21T07:24:14;99407.59;;;6.16;57.96
71948;BME280;63257;55.082;38.772;2023-03-21T07:26:41;99407.78;;;6.32;58.17
71948;BME280;63257;55.082;38.772;2023-03-21T07:29:08;99400.00;;;6.50;57.07
71948;BME280;63257;55.082;38.772;2023-03-21T07:32:00;99400.56;;;6.56;56.56
71948;BME280;63257;55.082;38.772;2023-03-21T07:34:26;99405.69;;;6.59;56.53
71948;BME280;63257;55.082;38.772;2023-03-21T07:36:59;99402.13;;;6.60;55.77
71948;BME280;63257;55.082;38.772;2023-03-21T07:39:26;99391.31;;;6.68;55.69
71948;BME280;63257;55.082;38.772;2023-03-21T07:41:52;99379.09;;;6.67;55.73
71948;BME280;63257;55.082;38.772;2023-03-21T07:44:29;99388.03;;;6.82;55.72
71948;BME280;63257;55.082;38.772;2023-03-21T07:47:02;99399.59;;;6.78;55.86
71948;BME280;63257;55.082;38.772;2023-03-21T07:49:28;99385.41;;;6.82;55.63
71948;BME280;63257;55.082;38.772;2023-03-21T07:51:54;99381.66;;;6.88;55.13
71948;BME280;63257;55.082;38.772;2023-03-21T07:54:20;99388.47;;;6.92;55.16
71948;BME280;63257;55.082;38.772;2023-03-21T07:56:47;99375.06;;;6.79;55.37
71948;BME280;63257;55.082;38.772;2023-03-21T07:59:13;99380.31;;;6.60;56.03
71948;BME280;63257;55.082;38.772;2023-03-21T08:01:39;99359.97;;;6.46;55.77
71948;BME280;63257;55.082;38.772;2023-03-21T08:04:05;99384.84;;;6.56;56.92
71948;BME280;63257;55.082;38.772;2023-03-21T08:06:32;99379.91;;;6.88;56.93
71948;BME280;63257;55.082;38.772;2023-03-21T08:08:58;99375.47;;;7.08;56.88
71948;BME280;63257;55.082;38.772;2023-03-21T08:11:25;99376.22;;;7.10;56.25
71948;BME280;63257;55.082;38.772;2023-03-21T08:13:52;99378.97;;;7.26;54.70
71948;BME280;63257;55.082;38.772;2023-03-21T08:16:23;99376.44;;;7.24;54.83
71948;BME280;63257;55.082;38.772;2023-03-21T08:18:49;99360.41;;;7.11;55.26
71948;BME280;63257;55.082;38.772;2023-03-21T08:21:16;99370.63;;;7.18;54.60
71948;BME280;63257;55.082;38.772;2023-03-21T08:23:42;99352.72;;;6.89;55.07
71948;BME280;63257;55.082;38.772;2023-03-21T08:26:08;99332.31;;;6.58;55.38
71948;BME280;63257;55.082;38.772;2023-03-21T08:28:35;99348.28;;;6.72;55.36
71948;BME280;63257;55.082;38.772;2023-03-21T08:31:11;99359.00;;;6.68;55.56
71948;BME280;63257;55.082;38.772;2023-03-21T08:33:48;99364.50;;;6.81;55.56
71948;BME280;63257;55.082;38.772;2023-03-21T08:36:22;99340.63;;;6.68;55.40
71948;BME280;63257;55.082;38.772;2023-03-21T08:42:55;99382.84;;;7.00;55.12
71948;BME280;63257;55.082;38.772;2023-03-21T08:45:24;99327.31;;;6.72;55.28
71948;BME280;63257;55.082;38.772;2023-03-21T08:47:54;99380.28;;;7.17;54.83
71948;BME280;63257;55.082;38.772;2023-03-21T08:50:23;99320.63;;;6.84;54.99
71948;BME280;63257;55.082;38.772;2023-03-21T08:52:49;99338.19;;;7.01;54.48
71948;BME280;63257;55.082;38.772;2023-03-21T08:55:16;99361.00;;;6.99;54.89
71948;BME280;63257;55.082;38.772;2023-03-21T08:57:43;99353.34;;;6.94;54.66
71948;BME280;63257;55.082;38.772;2023-03-21T09:00:14;99382.69;;;7.03;54.42
71948;BME280;63257;55.082;38.772;2023-03-21T09:02:50;99373.75;;;7.07;54.89
71948;BME280;63257;55.082;38.772;2023-03-21T09:05:17;99347.41;;;6.91;54.45
71948;BME280;63257;55.082;38.772;2023-03-21T09:07:43;99313.78;;;6.62;53.97
71948;BME280;63257;55.082;38.772;2023-03-21T09:10:13;99376.22;;;6.92;53.84
71948;BME280;63257;55.082;38.772;2023-03-21T09:12:42;99334.94;;;6.77;53.18
71948;BME280;63257;55.082;38.772;2023-03-21T09:15:19;99373.19;;;7.37;52.20
71948;BME280;63257;55.082;38.772;2023-03-21T09:17:46;99355.50;;;7.23;52.11
71948;BME280;63257;55.082;38.772;2023-03-21T09:20:15;99382.06;;;7.34;51.85
71948;BME280;63257;55.082;38.772;2023-03-21T09:22:48;99330.81;;;7.27;52.37
71948;BME280;63257;55.082;38.772;2023-03-21T09:25:15;99377.25;;;7.79;52.39
71948;BME280;63257;55.082;38.772;2023-03-21T09:27:41;99360.34;;;8.01;51.14
71948;BME280;63257;55.082;38.772;2023-03-21T09:30:16;99329.81;;;7.98;48.87
71948;BME280;63257;55.082;38.772;2023-03-21T09:32:43;99374.97;;;8.40;49.52
71948;BME280;63257;55.082;38.772;2023-03-21T09:35:16;99386.91;;;8.63;49.41
71948;BME280;63257;55.082;38.772;2023-03-21T09:37:49;99388.78;;;8.77;49.22
71948;BME280;63257;55.082;38.772;2023-03-21T09:43:22;99378.84;;;9.14;47.73
71948;BME280;63257;55.082;38.772;2023-03-21T09:45:55;99372.47;;;9.18;47.39
71948;BME280;63257;55.082;38.772;2023-03-21T09:48:39;99315.22;;;8.75;47.01
71948;BME280;63257;55.082;38.772;2023-03-21T09:51:13;99373.22;;;9.36;46.80
71948;BME280;63257;55.082;38.772;2023-03-21T09:53:46;99372.38;;;9.36;46.70
71948;BME280;63257;55.082;38.772;2023-03-21T09:56:14;99339.34;;;9.14;46.28
71948;BME280;63257;55.082;38.772;2023-03-21T09:58:48;99348.28;;;9.11;46.38
71948;BME280;63257;55.082;38.772;2023-03-21T10:01:27;99337.31;;;9.19;46.58
71948;BME280;63257;55.082;38.772;2023-03-21T10:03:57;99334.84;;;9.16;46.52
71948;BME280;63257;55.082;38.772;2023-03-21T10:06:26;99332.38;;;9.13;46.64
71948;BME280;63257;55.082;38.772;2023-03-21T10:09:02;99328.59;;;9.03;46.44
71948;BME280;63257;55.082;38.772;2023-03-21T10:11:49;99291.03;;;9.15;45.71
71948;BME280;63257;55.082;38.772;2023-03-21T10:14:38;99327.34;;;9.55;44.75
71948;BME280;63257;55.082;38.772;2023-03-21T10:17:27;99302.09;;;9.81;44.12
71948;BME280;63257;55.082;38.772;2023-03-21T10:20:07;99347.50;;;10.29;42.66
71948;BME280;63257;55.082;38.772;2023-03-21T10:22:37;99356.56;;;10.54;41.70
71948;BME280;63257;55.082;38.772;2023-03-21T10:25:07;99346.31;;;10.35;40.30
71948;BME280;63257;55.082;38.772;2023-03-21T10:27:36;99323.09;;;10.11;40.61
71948;BME280;63257;55.082;38.772;2023-03-21T10:30:20;99303.41;;;9.88;40.84
71948;BME280;63257;55.082;38.772;2023-03-21T10:32:50;99350.22;;;9.99;41.23
71948;BME280;63257;55.082;38.772;2023-03-21T10:35:16;99337.94;;;9.83;41.35
71948;BME280;63257;55.082;38.772;2023-03-21T10:37:44;99325.50;;;9.71;41.90
71948;BME280;63257;55.082;38.772;2023-03-21T10:40:16;99298.09;;;9.59;41.90
71948;BME280;63257;55.082;38.772;2023-03-21T10:42:42;99336.66;;;9.91;41.71
71948;BME280;63257;55.082;38.772;2023-03-21T10:45:17;99310.25;;;9.76;41.34
71948;BME280;63257;55.082;38.772;2023-03-21T10:47:48;99321.88;;;9.88;40.88
71948;BME280;63257;55.082;38.772;2023-03-21T10:50:17;99282.31;;;9.88;40.48
71948;BME280;63257;55.082;38.772;2023-03-21T10:52:49;99260.84;;;9.94;41.32
71948;BME280;63257;55.082;38.772;2023-03-21T10:55:21;99320.47;;;10.11;40.64
71948;BME280;63257;55.082;38.772;2023-03-21T10:57:56;99308.78;;;10.30;40.92
71948;BME280;63257;55.082;38.772;2023-03-21T11:00:28;99325.72;;;10.26;40.47
71948;BME280;63257;55.082;38.772;2023-03-21T11:02:56;99318.78;;;10.10;41.66
71948;BME280;63257;55.082;38.772;2023-03-21T11:05:39;99332.78;;;10.11;41.34
71948;BME280;63257;55.082;38.772;2023-03-21T11:08:16;99320.56;;;9.81;40.94
71948;BME280;63257;55.082;38.772;2023-03-21T11:11:04;99333.34;;;9.73;41.63
71948;BME280;63257;55.082;38.772;2023-03-21T11:13:37;99329.44;;;9.64;41.93
71948;BME280;63257;55.082;38.772;2023-03-21T11:16:10;99323.09;;;9.82;41.76
71948;BME280;63257;55.082;38.772;2023-03-21T11:18:48;99322.25;;;9.96;41.37
71948;BME280;63257;55.082;38.772;2023-03-21T11:21:15;99319.81;;;10.08;41.63
71948;BME280;63257;55.082;38.772;2023-03-21T11:23:47;99298.31;;;9.99;40.90
71948;BME280;63257;55.082;38.772;2023-03-21T11:26:20;99299.25;;;10.56;39.78
71948;BME280;63257;55.082;38.772;2023-03-21T11:28:51;99306.34;;;10.83;39.60
71948;BME280;63257;55.082;38.772;2023-03-21T11:34:25;99307.63;;;10.63;39.24
71948;BME280;63257;55.082;38.772;2023-03-21T11:45:23;99288.28;;;11.83;37.23
71948;BME280;63257;55.082;38.772;2023-03-21T11:47:53;99269.34;;;12.02;36.33
71948;BME280;63257;55.082;38.772;2023-03-21T11:50:36;99298.63;;;12.37;36.12
71948;BME280;63257;55.082;38.772;2023-03-21T11:56:03;99275.31;;;12.43;34.32
71948;BME280;63257;55.082;38.772;2023-03-21T12:03:15;99293.31;;;12.37;33.82
71948;BME280;63257;55.082;38.772;2023-03-21T12:05:55;99284.78;;;12.34;33.50
71948;BME280;63257;55.082;38.772;2023-03-21T12:11:21;99275.09;;;12.46;33.09
71948;BME280;63257;55.082;38.772;2023-03-21T12:24:31;99267.91;;;12.96;31.20
71948;BME280;63257;55.082;38.772;2023-03-21T12:42:27;99201.44;;;13.35;31.32
71948;BME280;63257;55.082;38.772;2023-03-21T12:44:50;99203.16;;;13.36;30.10
71948;BME280;63257;55.082;38.772;2023-03-21T12:47:25;99194.88;;;13.52;30.30
71948;BME280;63257;55.082;38.772;2023-03-21T12:49:57;99242.16;;;13.81;30.60
71948;BME280;63257;55.082;38.772;2023-03-21T12:52:30;99245.63;;;14.27;28.99
71948;BME280;63257;55.082;38.772;2023-03-21T12:55:01;99225.28;;;13.93;29.20
71948;BME280;63257;55.082;38.772;2023-03-21T12:57:35;99242.81;;;14.51;29.58
71948;BME280;63257;55.082;38.772;2023-03-21T13:00:20;99237.81;;;14.80;29.22
71948;BME280;63257;55.082;38.772;2023-03-21T13:03:00;99235.63;;;14.85;28.89
71948;BME280;63257;55.082;38.772;2023-03-21T13:05:48;99235.44;;;14.98;29.10
71948;BME280;63257;55.082;38.772;2023-03-21T13:08:26;99237.53;;;15.16;28.83
71948;BME280;63257;55.082;38.772;2023-03-21T13:11:25;99224.34;;;14.93;27.42
71948;BME280;63257;55.082;38.772;2023-03-21T13:14:03;99232.78;;;14.98;27.81
71948;BME280;63257;55.082;38.772;2023-03-21T13:16:44;99239.03;;;14.76;28.08
71948;BME280;63257;55.082;38.772;2023-03-21T13:27:12;99228.41;;;15.08;27.45
71948;BME280;63257;55.082;38.772;2023-03-21T13:29:52;99223.19;;;15.07;28.05
71948;BME280;63257;55.082;38.772;2023-03-21T13:32:28;99222.63;;;15.03;27.84
71948;BME280;63257;55.082;38.772;2023-03-21T13:35:01;99199.59;;;14.92;27.96
71948;BME280;63257;55.082;38.772;2023-03-21T13:37:34;99214.66;;;15.24;27.74
71948;BME280;63257;55.082;38.772;2023-03-21T13:40:19;99212.28;;;15.52;27.90
71948;BME280;63257;55.082;38.772;2023-03-21T13:42:51;99215.75;;;15.01;27.28
71948;BME280;63257;55.082;38.772;2023-03-21T13:45:44;99217.91;;;14.74;27.26
71948;BME280;63257;55.082;38.772;2023-03-21T13:48:28;99216.38;;;14.49;27.64
71948;BME280;63257;55.082;38.772;2023-03-21T13:51:01;99218.94;;;14.51;27.55
71948;BME280;63257;55.082;38.772;2023-03-21T13:53:39;99215.81;;;14.23;27.69
71948;BME280;63257;55.082;38.772;2023-03-21T13:58:39;99216.81;;;13.99;28.09
71948;BME280;63257;55.082;38.772;2023-03-21T14:01:26;99212.47;;;14.21;27.92
71948;BME280;63257;55.082;38.772;2023-03-21T14:06:36;99214.72;;;14.25;28.46
71948;BME280;63257;55.082;38.772;2023-03-21T14:09:05;99203.31;;;14.02;27.53
71948;BME280;63257;55.082;38.772;2023-03-21T14:11:32;99211.88;;;13.95;27.50
71948;BME280;63257;55.082;38.772;2023-03-21T14:14:00;99177.91;;;13.66;27.52
71948;BME280;63257;55.082;38.772;2023-03-21T14:16:27;99209.00;;;13.86;28.60
71948;BME280;63257;55.082;38.772;2023-03-21T14:19:04;99156.38;;;12.77;29.21
71948;BME280;63257;55.082;38.772;2023-03-21T14:21:33;99211.63;;;12.33;31.51
71948;BME280;63257;55.082;38.772;2023-03-21T14:24:11;99212.00;;;11.89;32.57
71948;BME280;63257;55.082;38.772;2023-03-21T14:26:43;99155.09;;;12.10;33.52
71948;BME280;63257;55.082;38.772;2023-03-21T14:29:18;99214.25;;;13.05;33.20
71948;BME280;63257;55.082;38.772;2023-03-21T14:31:46;99207.69;;;13.34;31.42
71948;BME280;63257;55.082;38.772;2023-03-21T14:34:13;99211.63;;;13.64;31.77
71948;BME280;63257;55.082;38.772;2023-03-21T14:36:42;99208.34;;;13.49;31.56
71948;BME280;63257;55.082;38.772;2023-03-21T14:39:22;99209.91;;;13.40;32.11
71948;BME280;63257;55.082;38.772;2023-03-21T14:41:54;99197.44;;;13.18;32.49
71948;BME280;63257;55.082;38.772;2023-03-21T14:44:25;99208.47;;;13.12;33.05
71948;BME280;63257;55.082;38.772;2023-03-21T14:47:06;99206.81;;;13.11;32.77
71948;BME280;63257;55.082;38.772;2023-03-21T14:49:36;99208.22;;;13.03;33.22
71948;BME280;63257;55.082;38.772;2023-03-21T14:52:08;99210.53;;;12.72;34.40
71948;BME280;63257;55.082;38.772;2023-03-21T14:54:34;99198.81;;;12.39;35.11
71948;BME280;63257;55.082;38.772;2023-03-21T14:57:07;99214.44;;;11.93;35.57
71948;BME280;63257;55.082;38.772;2023-03-21T14:59:37;99201.22;;;11.80;35.93
71948;BME280;63257;55.082;38.772;2023-03-21T15:02:15;99213.63;;;11.79;37.57
71948;BME280;63257;55.082;38.772;2023-03-21T15:04:50;99167.31;;;11.48;37.66
71948;BME280;63257;55.082;38.772;2023-03-21T15:07:31;99195.22;;;11.00;38.20
71948;BME280;63257;55.082;38.772;2023-03-21T15:10:04;99130.66;;;10.24;39.24
71948;BME280;63257;55.082;38.772;2023-03-21T15:12:30;99183.75;;;10.32;39.92
71948;BME280;63257;55.082;38.772;2023-03-21T15:15:00;99168.84;;;10.04;40.88
71948;BME280;63257;55.082;38.772;2023-03-21T15:17:29;99165.59;;;9.57;41.53
71948;BME280;63257;55.082;38.772;2023-03-21T15:19:57;99210.00;;;9.49;42.92
71948;BME280;63257;55.082;38.772;2023-03-21T15:22:37;99181.66;;;8.79;44.13